Time;durP1;ratioP1;P1;durP2;ratioP2;P2;SDS_P1;SDS_P2;PMS_P1;PMS_P2;Temp;Humidity;BMP_temperature;BMP_pressure;BME280_temperature;BME280_humidity;BME280_pressure;Samples;Min_cycle;Max_cycle;Signal;HPM_P1;HPM_P2
2022/04/21 00:01:00;;;;;;;25.80;11.52;;;;;;;;;;5093444;28;20213;-78
2022/04/21 00:03:28;;;;;;;28.38;12.10;;;;;;;;;;5093145;28;20265;-77
2022/04/21 00:05:55;;;;;;;26.80;11.60;;;;;;;;;;5093383;28;20210;-81
2022/04/21 00:08:23;;;;;;;27.00;11.52;;;;;;;;;;5093478;28;20215;-80
2022/04/21 00:10:50;;;;;;;25.45;11.50;;;;;;;;;;5093472;28;20298;-77
2022/04/21 00:13:17;;;;;;;28.58;12.20;;;;;;;;;;5093348;28;20206;-77
2022/04/21 00:15:47;;;;;;;27.13;11.43;;;;;;;;;;5093049;28;20596;-79
2022/04/21 00:18:14;;;;;;;26.65;10.88;;;;;;;;;;5093127;28;20918;-76
2022/04/21 00:20:42;;;;;;;23.05;9.80;;;;;;;;;;5093305;28;20211;-81
2022/04/21 00:25:58;;;;;;;25.13;10.48;;;;;;;;;;5087614;28;20212;-78
2022/04/21 00:28:26;;;;;;;23.80;9.88;;;;;;;;;;5093150;28;20348;-78
2022/04/21 00:30:56;;;;;;;26.85;11.35;;;;;;;;;;5092890;28;20665;-82
2022/04/21 00:33:23;;;;;;;26.67;10.70;;;;;;;;;;5092722;28;20213;-78
2022/04/21 00:35:51;;;;;;;25.90;10.90;;;;;;;;;;5086377;28;20207;-79
2022/04/21 00:38:18;;;;;;;22.05;10.15;;;;;;;;;;5092629;28;20242;-79
2022/04/21 00:40:45;;;;;;;26.13;9.60;;;;;;;;;;5092995;28;20214;-78
2022/04/21 00:43:13;;;;;;;23.08;9.23;;;;;;;;;;5092613;28;20227;-78
2022/04/21 00:45:40;;;;;;;22.13;9.95;;;;;;;;;;5092406;28;20216;-81
2022/04/21 00:48:10;;;;;;;23.30;9.27;;;;;;;;;;5092849;28;20200;-78
2022/04/21 00:50:38;;;;;;;25.85;9.85;;;;;;;;;;5092897;28;20230;-79
2022/04/21 00:53:06;;;;;;;26.13;9.35;;;;;;;;;;5092258;28;20318;-78
2022/04/21 00:55:33;;;;;;;23.73;9.85;;;;;;;;;;5092293;28;20211;-80
2022/04/21 00:58:02;;;;;;;22.58;8.77;;;;;;;;;;5092455;28;20208;-79
2022/04/21 01:00:30;;;;;;;22.75;8.77;;;;;;;;;;5086307;28;20221;-81
2022/04/21 01:02:57;;;;;;;23.20;9.07;;;;;;;;;;5092978;28;20724;-78
2022/04/21 01:05:29;;;;;;;23.23;9.38;;;;;;;;;;5092089;28;20290;-82
2022/04/21 01:07:56;;;;;;;28.80;9.57;;;;;;;;;;5092437;28;20207;-77
2022/04/21 01:10:26;;;;;;;24.25;9.68;;;;;;;;;;5092173;28;20219;-83
2022/04/21 01:12:56;;;;;;;22.17;8.13;;;;;;;;;;5092038;28;20204;-78
2022/04/21 01:15:24;;;;;;;23.00;9.95;;;;;;;;;;5091885;28;20211;-77
2022/04/21 01:17:53;;;;;;;21.38;8.27;;;;;;;;;;5092401;28;20210;-77
2022/04/21 01:20:22;;;;;;;19.83;7.68;;;;;;;;;;5091822;28;20265;-78
2022/04/21 01:22:50;;;;;;;21.17;7.60;;;;;;;;;;5092137;28;20232;-78
2022/04/21 01:25:17;;;;;;;22.90;8.88;;;;;;;;;;5091895;28;20203;-82
2022/04/21 01:27:45;;;;;;;22.75;8.93;;;;;;;;;;5091582;28;20692;-80
2022/04/21 01:30:13;;;;;;;21.55;8.15;;;;;;;;;;5091820;28;20672;-78
2022/04/21 01:32:42;;;;;;;20.52;7.35;;;;;;;;;;5091665;28;20210;-78
2022/04/21 01:35:10;;;;;;;21.30;8.82;;;;;;;;;;5091931;28;20210;-79
2022/04/21 01:43:11;;;;;;;19.23;7.50;;;;;;;;;;5087599;28;20250;-78
2022/04/21 01:45:39;;;;;;;22.92;7.88;;;;;;;;;;5091324;28;20211;-79
2022/04/21 01:48:07;;;;;;;19.08;6.43;;;;;;;;;;5091656;28;20227;-80
2022/04/21 01:50:35;;;;;;;23.95;8.77;;;;;;;;;;5091418;28;20220;-79
2022/04/21 01:53:03;;;;;;;23.33;7.88;;;;;;;;;;5091757;28;20688;-82
2022/04/21 01:55:32;;;;;;;22.17;7.60;;;;;;;;;;5090940;28;20219;-82
2022/04/21 01:57:59;;;;;;;19.75;7.28;;;;;;;;;;5091267;28;20211;-76
2022/04/21 02:00:26;;;;;;;17.75;5.95;;;;;;;;;;5091346;28;20242;-79
2022/04/21 02:02:54;;;;;;;22.10;7.82;;;;;;;;;;5091316;28;20724;-81
2022/04/21 02:05:21;;;;;;;20.25;6.68;;;;;;;;;;5091409;28;20204;-79
2022/04/21 02:07:49;;;;;;;22.92;7.28;;;;;;;;;;5091250;28;20656;-81
2022/04/21 02:10:18;;;;;;;19.70;6.50;;;;;;;;;;5091089;28;20208;-79
2022/04/21 02:12:47;;;;;;;19.77;6.18;;;;;;;;;;5091129;28;20212;-82
2022/04/21 02:15:17;;;;;;;18.20;7.00;;;;;;;;;;5090970;28;20289;-82
2022/04/21 02:17:44;;;;;;;18.60;6.40;;;;;;;;;;5091036;28;20290;-80
2022/04/21 02:20:14;;;;;;;17.92;6.25;;;;;;;;;;5091050;28;20260;-78
2022/04/21 02:22:42;;;;;;;18.58;7.53;;;;;;;;;;5090781;28;20223;-78
2022/04/21 02:25:10;;;;;;;19.25;6.20;;;;;;;;;;5091122;28;20207;-77
2022/04/21 02:27:40;;;;;;;22.50;7.05;;;;;;;;;;5090820;28;20207;-78
2022/04/21 02:30:09;;;;;;;19.75;7.10;;;;;;;;;;5091067;28;20231;-81
2022/04/21 02:32:37;;;;;;;22.08;6.75;;;;;;;;;;5090891;28;20208;-82
2022/04/21 02:35:05;;;;;;;20.95;6.80;;;;;;;;;;5090816;28;20210;-77
2022/04/21 02:37:36;;;;;;;18.27;6.63;;;;;;;;;;5090212;28;20245;-77
2022/04/21 02:40:04;;;;;;;20.27;5.80;;;;;;;;;;5090833;28;20242;-78
2022/04/21 02:42:31;;;;;;;20.70;7.60;;;;;;;;;;5090745;28;20231;-76
2022/04/21 02:45:00;;;;;;;20.13;7.35;;;;;;;;;;5090886;28;20207;-81
2022/04/21 02:47:29;;;;;;;21.50;7.55;;;;;;;;;;5084532;28;20208;-76
2022/04/21 02:49:57;;;;;;;19.13;6.50;;;;;;;;;;5094048;28;20215;-76
2022/04/21 02:52:24;;;;;;;21.35;6.88;;;;;;;;;;5090922;28;20212;-78
2022/04/21 02:57:37;;;;;;;18.17;6.45;;;;;;;;;;5090439;28;20207;-77
2022/04/21 03:00:19;;;;;;;20.38;7.03;;;;;;;;;;5090565;28;20207;-77
2022/04/21 03:02:48;;;;;;;20.23;6.85;;;;;;;;;;5090579;28;20242;-76
2022/04/21 03:05:16;;;;;;;23.20;7.45;;;;;;;;;;5090642;28;20204;-76
2022/04/21 03:07:44;;;;;;;22.88;6.70;;;;;;;;;;5090386;28;20298;-77
2022/04/21 03:10:11;;;;;;;17.52;6.38;;;;;;;;;;5090647;28;20208;-77
2022/04/21 03:12:39;;;;;;;20.15;6.82;;;;;;;;;;5094378;28;20216;-77
2022/04/21 03:15:11;;;;;;;17.52;5.75;;;;;;;;;;5094596;28;20204;-76
2022/04/21 03:17:38;;;;;;;18.98;6.45;;;;;;;;;;5094569;28;20291;-76
2022/04/21 03:20:08;;;;;;;17.77;6.72;;;;;;;;;;5094283;28;20212;-77
2022/04/21 03:25:21;;;;;;;19.42;6.90;;;;;;;;;;5094346;28;20316;-80
2022/04/21 03:27:50;;;;;;;22.52;7.55;;;;;;;;;;5094322;28;20216;-76
2022/04/21 03:30:17;;;;;;;25.60;9.07;;;;;;;;;;5094149;28;20212;-77
2022/04/21 03:32:45;;;;;;;34.15;12.85;;;;;;;;;;5093949;28;20207;-79
2022/04/21 03:35:14;;;;;;;31.08;11.60;;;;;;;;;;5093998;28;20560;-78
2022/04/21 03:37:42;;;;;;;25.35;10.30;;;;;;;;;;5093492;28;20797;-77
2022/04/21 03:40:11;;;;;;;22.98;7.97;;;;;;;;;;5094042;28;20643;-76
2022/04/21 03:42:39;;;;;;;21.60;7.45;;;;;;;;;;5093803;28;20727;-78
2022/04/21 03:45:07;;;;;;;23.90;9.25;;;;;;;;;;5093881;28;20210;-79
2022/04/21 03:47:34;;;;;;;37.08;12.73;;;;;;;;;;5093654;28;20218;-77
2022/04/21 03:50:01;;;;;;;30.25;10.50;;;;;;;;;;5093772;28;20204;-77
2022/04/21 03:52:31;;;;;;;35.70;10.93;;;;;;;;;;5093736;28;20203;-78
2022/04/21 03:54:59;;;;;;;26.05;9.40;;;;;;;;;;5093517;28;20212;-77
2022/04/21 03:57:27;;;;;;;51.78;15.20;;;;;;;;;;5093313;28;20582;-78
2022/04/21 03:59:54;;;;;;;79.68;25.13;;;;;;;;;;5093742;28;20204;-78
2022/04/21 04:02:22;;;;;;;35.13;11.85;;;;;;;;;;5093339;28;20247;-78
2022/04/21 04:04:49;;;;;;;39.10;15.70;;;;;;;;;;5093290;28;20214;-80
2022/04/21 04:12:49;;;;;;;23.73;8.75;;;;;;;;;;5093350;28;20269;-79
2022/04/21 04:15:16;;;;;;;23.15;8.40;;;;;;;;;;5093220;28;20213;-80
2022/04/21 04:17:43;;;;;;;21.92;8.25;;;;;;;;;;5092885;28;20670;-78
2022/04/21 04:20:11;;;;;;;22.10;8.25;;;;;;;;;;5093333;28;20643;-81
2022/04/21 04:22:40;;;;;;;24.95;8.85;;;;;;;;;;5093078;28;20209;-76
2022/04/21 04:25:11;;;;;;;27.20;9.60;;;;;;;;;;5093388;28;20213;-78
2022/04/21 04:27:39;;;;;;;22.63;8.77;;;;;;;;;;5092775;28;20226;-78
2022/04/21 04:30:08;;;;;;;23.48;8.95;;;;;;;;;;5092946;28;20324;-79
2022/04/21 04:32:36;;;;;;;25.20;10.27;;;;;;;;;;5092955;28;20687;-77
2022/04/21 04:35:04;;;;;;;27.35;9.55;;;;;;;;;;5093320;28;20297;-77
2022/04/21 04:37:31;;;;;;;22.05;9.85;;;;;;;;;;5092741;28;20203;-76
2022/04/21 04:39:59;;;;;;;25.70;9.52;;;;;;;;;;5092755;28;20864;-80
2022/04/21 04:42:28;;;;;;;22.50;8.90;;;;;;;;;;5092825;28;20235;-76
2022/04/21 04:47:37;;;;;;;25.90;9.65;;;;;;;;;;5092324;28;20707;-76
2022/04/21 04:50:05;;;;;;;22.38;7.57;;;;;;;;;;5092602;28;20302;-76
2022/04/21 04:52:32;;;;;;;22.40;9.05;;;;;;;;;;5092502;28;20215;-76
2022/04/21 04:55:00;;;;;;;21.85;8.77;;;;;;;;;;5092448;28;20204;-75
2022/04/21 04:57:31;;;;;;;19.17;8.00;;;;;;;;;;5092536;28;20208;-75
2022/04/21 04:59:58;;;;;;;21.27;6.82;;;;;;;;;;5085878;28;20204;-76
2022/04/21 05:02:26;;;;;;;16.92;5.53;;;;;;;;;;5092354;28;20258;-76
2022/04/21 05:04:53;;;;;;;17.95;6.60;;;;;;;;;;5092617;28;20235;-77
2022/04/21 05:07:20;;;;;;;17.42;5.95;;;;;;;;;;5092131;28;20206;-75
2022/04/21 05:09:48;;;;;;;17.63;5.70;;;;;;;;;;5092176;28;20236;-75
2022/04/21 05:12:15;;;;;;;16.10;5.25;;;;;;;;;;5092103;28;20979;-75
2022/04/21 05:14:45;;;;;;;15.53;5.00;;;;;;;;;;5092220;28;20748;-75
2022/04/21 05:17:13;;;;;;;17.03;5.77;;;;;;;;;;5092194;28;20845;-75
2022/04/21 05:19:41;;;;;;;14.70;4.67;;;;;;;;;;5091670;28;20446;-75
2022/04/21 05:22:12;;;;;;;16.10;5.13;;;;;;;;;;5092274;28;20839;-75
2022/04/21 05:24:39;;;;;;;17.33;5.33;;;;;;;;;;5085154;28;20496;-75
2022/04/21 05:27:07;;;;;;;17.37;5.53;;;;;;;;;;5091968;28;20450;-75
2022/04/21 05:32:25;;;;;;;17.70;5.83;;;;;;;;;;5091955;28;20461;-75
2022/04/21 05:34:53;;;;;;;16.27;5.23;;;;;;;;;;5091408;28;20955;-75
2022/04/21 05:37:20;;;;;;;15.67;5.00;;;;;;;;;;5091598;28;20453;-75
2022/04/21 05:39:48;;;;;;;16.57;5.00;;;;;;;;;;5091697;28;21006;-75
2022/04/21 05:42:22;;;;;;;16.60;5.37;;;;;;;;;;5091631;28;20449;-76
2022/04/21 05:44:50;;;;;;;16.90;5.90;;;;;;;;;;5091424;28;20549;-76
2022/04/21 05:47:18;;;;;;;15.73;4.77;;;;;;;;;;5091793;28;20450;-75
2022/04/21 05:49:48;;;;;;;14.77;4.60;;;;;;;;;;5091235;28;20458;-75
2022/04/21 05:52:16;;;;;;;14.83;4.57;;;;;;;;;;5091495;28;20454;-76
2022/04/21 05:54:43;;;;;;;14.90;4.83;;;;;;;;;;5091428;28;20449;-75
2022/04/21 05:57:11;;;;;;;13.90;3.37;;;;;;;;;;5091131;28;20465;-75
2022/04/21 05:59:38;;;;;;;15.13;5.03;;;;;;;;;;5091371;28;20453;-75
2022/04/21 06:02:07;;;;;;;14.70;4.33;;;;;;;;;;5091398;28;20457;-75
2022/04/21 06:04:34;;;;;;;19.30;6.67;;;;;;;;;;5091189;28;20568;-75
2022/04/21 06:07:04;;;;;;;16.13;5.00;;;;;;;;;;5091371;28;20492;-75
2022/04/21 06:09:31;;;;;;;14.70;4.83;;;;;;;;;;5090968;28;20454;-75
2022/04/21 06:11:59;;;;;;;17.13;5.50;;;;;;;;;;5091093;28;20488;-75
2022/04/21 06:14:26;;;;;;;15.37;4.60;;;;;;;;;;5091256;28;20532;-75
2022/04/21 06:16:54;;;;;;;14.40;4.20;;;;;;;;;;5091190;28;20441;-75
2022/04/21 06:19:21;;;;;;;14.50;4.03;;;;;;;;;;5090928;28;20533;-75
2022/04/21 06:21:49;;;;;;;15.20;4.30;;;;;;;;;;5090942;28;20456;-75
2022/04/21 06:24:18;;;;;;;15.83;4.80;;;;;;;;;;5090747;28;20473;-75
2022/04/21 06:26:45;;;;;;;15.67;5.23;;;;;;;;;;5091085;28;20862;-75
2022/04/21 06:29:13;;;;;;;14.10;3.73;;;;;;;;;;5090406;28;20464;-74
2022/04/21 06:31:40;;;;;;;14.80;4.00;;;;;;;;;;5090671;28;20450;-75
2022/04/21 06:34:07;;;;;;;15.00;4.10;;;;;;;;;;5090990;28;20966;-74
2022/04/21 06:36:35;;;;;;;15.30;4.17;;;;;;;;;;5090866;28;20452;-75
2022/04/21 06:39:03;;;;;;;15.43;4.37;;;;;;;;;;5090815;28;20485;-75
2022/04/21 06:41:33;;;;;;;14.70;4.30;;;;;;;;;;5090751;28;20450;-75
2022/04/21 06:49:30;;;;;;;14.90;4.23;;;;;;;;;;5094827;28;20437;-74
2022/04/21 06:51:58;;;;;;;18.80;8.00;;;;;;;;;;5088099;28;20458;-75
2022/04/21 06:54:25;;;;;;;18.17;6.33;;;;;;;;;;5094945;28;20452;-75
2022/04/21 06:56:55;;;;;;;17.17;5.40;;;;;;;;;;5094748;28;20445;-75
2022/04/21 06:59:22;;;;;;;19.87;6.80;;;;;;;;;;5094585;28;20454;-75
2022/04/21 07:01:50;;;;;;;15.50;4.90;;;;;;;;;;5094611;28;20457;-75
2022/04/21 07:04:17;;;;;;;16.23;4.53;;;;;;;;;;5094455;28;20926;-74
2022/04/21 07:06:45;;;;;;;16.47;5.43;;;;;;;;;;5094765;28;20537;-75
2022/04/21 07:09:12;;;;;;;15.57;5.00;;;;;;;;;;5094466;28;20445;-74
2022/04/21 07:11:40;;;;;;;17.70;4.60;;;;;;;;;;5094369;28;20461;-75
2022/04/21 07:14:10;;;;;;;21.40;8.53;;;;;;;;;;5094539;28;20564;-75
2022/04/21 07:16:37;;;;;;;16.47;5.13;;;;;;;;;;5094652;28;21393;-74
2022/04/21 07:19:04;;;;;;;18.50;5.50;;;;;;;;;;5087549;28;20942;-74
2022/04/21 07:21:32;;;;;;;14.50;4.43;;;;;;;;;;5094182;28;20453;-74
2022/04/21 07:23:59;;;;;;;15.70;4.73;;;;;;;;;;5094495;28;21005;-75
2022/04/21 07:26:28;;;;;;;15.97;5.07;;;;;;;;;;5094184;28;20818;-75
2022/04/21 07:28:56;;;;;;;17.70;5.00;;;;;;;;;;5093635;28;20465;-74
2022/04/21 07:31:26;;;;;;;16.63;4.93;;;;;;;;;;5094154;28;20460;-74
2022/04/21 07:33:54;;;;;;;14.27;4.03;;;;;;;;;;5094249;28;20537;-75
2022/04/21 07:36:21;;;;;;;15.60;4.50;;;;;;;;;;5093974;28;20448;-74
2022/04/21 07:38:49;;;;;;;17.07;6.07;;;;;;;;;;5094033;28;20482;-75
2022/04/21 07:41:17;;;;;;;15.50;4.90;;;;;;;;;;5093845;28;20449;-75
2022/04/21 07:43:44;;;;;;;15.30;4.50;;;;;;;;;;5093540;28;20457;-75
2022/04/21 07:46:12;;;;;;;16.40;5.43;;;;;;;;;;5087235;28;20449;-75
2022/04/21 07:51:27;;;;;;;14.40;4.00;;;;;;;;;;5088286;28;20500;-74
2022/04/21 07:53:54;;;;;;;17.67;5.57;;;;;;;;;;5093538;28;20478;-75
2022/04/21 07:56:22;;;;;;;16.57;5.50;;;;;;;;;;5093193;28;20442;-74
2022/04/21 07:58:49;;;;;;;17.37;5.00;;;;;;;;;;5093822;28;20449;-74
2022/04/21 08:01:16;;;;;;;18.03;6.00;;;;;;;;;;5093697;28;20924;-74
2022/04/21 08:03:46;;;;;;;17.73;5.33;;;;;;;;;;5093170;28;20465;-74
2022/04/21 08:06:13;;;;;;;15.37;4.60;;;;;;;;;;5093342;28;20458;-74
2022/04/21 08:08:41;;;;;;;16.00;4.73;;;;;;;;;;5093284;28;20454;-74
2022/04/21 08:11:08;;;;;;;16.23;4.93;;;;;;;;;;5093559;28;20467;-74
2022/04/21 08:13:36;;;;;;;17.80;5.63;;;;;;;;;;5093061;28;20442;-74
2022/04/21 08:16:03;;;;;;;16.90;5.23;;;;;;;;;;5093273;28;20453;-74
2022/04/21 08:18:31;;;;;;;16.27;5.00;;;;;;;;;;5093214;28;20463;-74
2022/04/21 08:21:00;;;;;;;17.70;5.67;;;;;;;;;;5093211;28;20469;-74
2022/04/21 08:23:27;;;;;;;16.80;5.50;;;;;;;;;;5092855;28;20862;-74
2022/04/21 08:34:21;;;;;;;15.87;5.00;;;;;;;;;;5093035;28;20448;-74
2022/04/21 08:36:52;;;;;;;18.83;5.77;;;;;;;;;;5092893;28;20450;-74
2022/04/21 08:39:20;;;;;;;16.43;5.20;;;;;;;;;;5092538;28;20470;-74
2022/04/21 08:41:49;;;;;;;15.30;4.83;;;;;;;;;;5092615;28;20453;-74
2022/04/21 08:44:19;;;;;;;16.20;5.07;;;;;;;;;;5092661;28;21153;-74
2022/04/21 08:46:48;;;;;;;17.13;5.60;;;;;;;;;;5092670;28;20969;-74
2022/04/21 08:49:17;;;;;;;16.87;5.03;;;;;;;;;;5092579;28;20456;-74
2022/04/21 08:51:44;;;;;;;15.10;4.93;;;;;;;;;;5092453;28;20450;-74
2022/04/21 08:54:14;;;;;;;18.80;6.40;;;;;;;;;;5092467;28;20454;-74
2022/04/21 08:56:42;;;;;;;39.30;19.80;;;;;;;;;;5092688;28;20458;-74
2022/04/21 08:59:10;;;;;;;21.50;7.47;;;;;;;;;;5092444;28;20457;-74
2022/04/21 09:01:37;;;;;;;18.03;7.97;;;;;;;;;;5085359;28;20985;-74
2022/04/21 09:04:05;;;;;;;18.00;7.23;;;;;;;;;;5092296;28;20448;-74
2022/04/21 09:06:32;;;;;;;17.33;6.50;;;;;;;;;;5092281;28;20450;-74
2022/04/21 09:09:21;;;;;;;24.43;6.37;;;;;;;;;;5091060;28;20457;-74
2022/04/21 09:11:52;;;;;;;16.77;6.10;;;;;;;;;;5092265;28;21027;-74
2022/04/21 09:14:20;;;;;;;17.63;6.33;;;;;;;;;;5092331;28;20970;-74
2022/04/21 09:16:48;;;;;;;19.03;7.37;;;;;;;;;;5092108;28;20495;-74
2022/04/21 09:19:15;;;;;;;18.30;6.17;;;;;;;;;;5091964;28;20461;-73
2022/04/21 09:21:43;;;;;;;17.83;6.10;;;;;;;;;;5092015;28;20494;-74
2022/04/21 09:24:21;;;;;;;16.37;5.70;;;;;;;;;;5092016;28;20450;-74
2022/04/21 09:26:49;;;;;;;17.63;6.37;;;;;;;;;;5092045;28;20450;-74
2022/04/21 09:29:24;;;;;;;16.20;5.30;;;;;;;;;;5091416;28;21020;-74
2022/04/21 09:31:57;;;;;;;17.20;5.80;;;;;;;;;;5091718;28;20465;-74
2022/04/21 09:34:25;;;;;;;19.03;5.30;;;;;;;;;;5091800;28;20449;-74
2022/04/21 09:36:55;;;;;;;16.90;4.83;;;;;;;;;;5091833;28;20450;-74
2022/04/21 09:39:26;;;;;;;19.70;5.77;;;;;;;;;;5091484;28;20497;-73
2022/04/21 09:41:54;;;;;;;16.80;5.60;;;;;;;;;;5091631;28;20446;-74
2022/04/21 09:47:07;;;;;;;15.03;4.80;;;;;;;;;;5091732;28;20437;-74
2022/04/21 09:49:35;;;;;;;16.87;5.60;;;;;;;;;;5091222;28;20445;-74
2022/04/21 09:52:03;;;;;;;16.60;5.50;;;;;;;;;;5091553;28;20499;-74
2022/04/21 09:54:33;;;;;;;16.53;4.27;;;;;;;;;;5091434;28;20450;-74
2022/04/21 09:57:01;;;;;;;18.97;6.00;;;;;;;;;;5091375;28;20547;-74
2022/04/21 09:59:35;;;;;;;18.13;5.70;;;;;;;;;;5091285;28;20813;-74
2022/04/21 10:02:03;;;;;;;16.70;4.53;;;;;;;;;;5091489;28;20550;-74
2022/04/21 10:04:31;;;;;;;17.57;5.70;;;;;;;;;;5091280;28;20478;-74
2022/04/21 10:06:59;;;;;;;16.57;5.17;;;;;;;;;;5091271;28;20446;-74
2022/04/21 10:09:27;;;;;;;18.00;5.93;;;;;;;;;;5090777;28;20556;-73
2022/04/21 10:11:58;;;;;;;19.77;5.40;;;;;;;;;;5091116;28;20442;-74
2022/04/21 10:14:26;;;;;;;25.23;8.17;;;;;;;;;;5084602;28;20457;-74
2022/04/21 10:16:54;;;;;;;16.73;5.53;;;;;;;;;;5091064;28;20461;-74
2022/04/21 10:19:24;;;;;;;16.47;5.43;;;;;;;;;;5090415;28;20449;-73
2022/04/21 10:21:52;;;;;;;16.67;4.77;;;;;;;;;;5090927;28;20452;-74
2022/04/21 10:24:23;;;;;;;14.93;5.43;;;;;;;;;;5091086;28;20472;-74
2022/04/21 10:26:50;;;;;;;14.83;4.97;;;;;;;;;;5090981;28;20438;-74
2022/04/21 10:29:21;;;;;;;16.67;4.70;;;;;;;;;;5090517;28;20465;-74
2022/04/21 10:31:51;;;;;;;14.60;4.10;;;;;;;;;;5090942;28;20450;-74
2022/04/21 10:34:29;;;;;;;14.87;4.20;;;;;;;;;;5090788;28;20446;-74
2022/04/21 10:37:07;;;;;;;20.23;4.23;;;;;;;;;;5091046;28;20441;-74
2022/04/21 10:39:34;;;;;;;15.60;4.13;;;;;;;;;;5090710;28;20488;-73
2022/04/21 10:42:09;;;;;;;16.40;3.53;;;;;;;;;;5103233;28;20524;-73
2022/04/21 10:44:44;;;;;;;16.13;4.40;;;;;;;;;;5088928;28;20559;-73
2022/04/21 10:47:30;;;;;;;16.27;4.40;;;;;;;;;;5091025;28;20452;-74
2022/04/21 10:49:59;;;;;;;16.70;5.53;;;;;;;;;;5090736;28;20446;-74
2022/04/21 10:58:26;;;;;;;18.00;5.73;;;;;;;;;;5090764;28;20895;-74
2022/04/21 11:03:47;;;;;;;17.60;4.80;;;;;;;;;;5105782;27;20342;-73
2022/04/21 11:06:15;;;;;;;16.47;4.80;;;;;;;;;;5068251;28;20830;-74
2022/04/21 11:08:43;;;;;;;15.47;4.67;;;;;;;;;;5068166;28;20454;-74
2022/04/21 11:11:13;;;;;;;15.40;4.03;;;;;;;;;;5068161;28;20481;-74
2022/04/21 11:13:44;;;;;;;16.17;5.00;;;;;;;;;;5061190;28;20518;-74
2022/04/21 11:16:12;;;;;;;15.70;4.67;;;;;;;;;;5067935;28;20457;-74
2022/04/21 11:18:39;;;;;;;15.03;4.20;;;;;;;;;;5068035;28;20450;-74
2022/04/21 11:21:26;;;;;;;15.97;4.40;;;;;;;;;;5067992;28;20475;-74
2022/04/21 11:24:02;;;;;;;17.53;4.60;;;;;;;;;;5061851;28;20451;-74
2022/04/21 11:26:30;;;;;;;16.37;4.47;;;;;;;;;;5062129;28;20474;-73
2022/04/21 11:29:02;;;;;;;14.37;3.30;;;;;;;;;;5067641;28;20631;-74
2022/04/21 11:31:29;;;;;;;16.47;4.13;;;;;;;;;;5061103;28;20512;-73
2022/04/21 11:34:02;;;;;;;15.03;3.90;;;;;;;;;;5067640;28;20825;-73
2022/04/21 11:36:40;;;;;;;15.07;4.43;;;;;;;;;;5067570;28;21032;-74
2022/04/21 11:39:08;;;;;;;16.90;5.37;;;;;;;;;;5067530;28;20482;-74
2022/04/21 11:41:36;;;;;;;16.87;4.67;;;;;;;;;;5067346;28;20451;-73
2022/04/21 11:44:03;;;;;;;14.63;3.73;;;;;;;;;;5067314;28;20451;-74
2022/04/21 11:46:30;;;;;;;15.47;4.37;;;;;;;;;;5067400;28;20451;-74
2022/04/21 11:49:00;;;;;;;15.50;3.57;;;;;;;;;;5067267;28;20465;-74
2022/04/21 11:51:28;;;;;;;18.43;5.97;;;;;;;;;;5066839;28;20457;-73
2022/04/21 11:53:57;;;;;;;16.47;3.67;;;;;;;;;;5067002;28;20601;-74
2022/04/21 11:56:27;;;;;;;30.00;5.33;;;;;;;;;;5066985;28;20466;-74
2022/04/21 11:58:55;;;;;;;15.37;3.67;;;;;;;;;;5067086;28;20451;-73
2022/04/21 12:06:53;;;;;;;16.57;4.63;;;;;;;;;;5066956;28;20437;-74
2022/04/21 12:09:23;;;;;;;15.00;3.70;;;;;;;;;;5066870;28;20530;-74
2022/04/21 12:11:53;;;;;;;18.73;4.33;;;;;;;;;;5066632;28;20451;-73
2022/04/21 12:14:20;;;;;;;15.90;3.90;;;;;;;;;;5057698;28;20944;-74
2022/04/21 12:16:50;;;;;;;16.80;4.40;;;;;;;;;;5053461;28;20535;-74
2022/04/21 12:19:21;;;;;;;14.70;3.93;;;;;;;;;;5053625;28;20447;-74
2022/04/21 12:21:59;;;;;;;15.27;3.73;;;;;;;;;;5053289;28;20447;-74
2022/04/21 12:24:32;;;;;;;16.40;4.60;;;;;;;;;;5053386;28;20439;-73
2022/04/21 12:27:00;;;;;;;15.83;5.10;;;;;;;;;;5053241;28;20473;-73
2022/04/21 12:29:29;;;;;;;15.10;3.67;;;;;;;;;;5052792;28;20472;-73
2022/04/21 12:31:58;;;;;;;15.87;3.60;;;;;;;;;;5053235;28;20448;-74
2022/04/21 12:34:27;;;;;;;15.23;4.63;;;;;;;;;;5053284;28;20436;-73
2022/04/21 12:36:56;;;;;;;14.00;3.30;;;;;;;;;;5053097;28;20454;-74
2022/04/21 12:39:24;;;;;;;15.47;3.53;;;;;;;;;;5052809;28;20448;-73
2022/04/21 12:41:54;;;;;;;17.83;4.03;;;;;;;;;;5053033;28;20455;-74
2022/04/21 12:44:23;;;;;;;17.93;5.37;;;;;;;;;;5047125;28;20439;-74
2022/04/21 12:46:58;;;;;;;14.60;3.77;;;;;;;;;;5046329;28;20803;-73
2022/04/21 12:49:26;;;;;;;14.30;3.23;;;;;;;;;;5052723;28;20462;-73
2022/04/21 12:51:56;;;;;;;16.07;5.00;;;;;;;;;;5052704;28;20448;-74
2022/04/21 12:54:27;;;;;;;17.53;4.17;;;;;;;;;;5052837;28;20875;-74
2022/04/21 12:56:56;;;;;;;13.90;3.63;;;;;;;;;;5052931;28;20452;-74
2022/04/21 12:59:24;;;;;;;13.40;2.63;;;;;;;;;;5052561;28;20456;-73
2022/04/21 13:01:52;;;;;;;15.67;4.10;;;;;;;;;;5052570;28;20574;-74
2022/04/21 13:04:19;;;;;;;19.93;3.37;;;;;;;;;;5052460;28;20501;-74
2022/04/21 13:06:46;;;;;;;17.43;4.20;;;;;;;;;;5052556;28;20447;-73
2022/04/21 13:09:14;;;;;;;13.97;3.17;;;;;;;;;;5052510;28;20975;-73
2022/04/21 13:11:41;;;;;;;15.73;3.90;;;;;;;;;;5052314;28;20838;-74
2022/04/21 13:14:10;;;;;;;14.60;3.60;;;;;;;;;;5052310;28;20869;-73
2022/04/21 13:16:38;;;;;;;15.33;3.20;;;;;;;;;;5052312;28;20563;-74
2022/04/21 13:19:06;;;;;;;17.10;3.30;;;;;;;;;;5052231;28;20463;-73
2022/04/21 13:24:18;;;;;;;14.23;3.47;;;;;;;;;;5052389;28;20483;-73
2022/04/21 13:26:45;;;;;;;15.20;3.37;;;;;;;;;;5051157;28;20538;-73
2022/04/21 13:29:14;;;;;;;15.20;4.27;;;;;;;;;;5051765;28;20467;-74
2022/04/21 13:34:27;;;;;;;14.10;3.33;;;;;;;;;;5047308;28;20497;-73
2022/04/21 13:36:55;;;;;;;13.10;2.40;;;;;;;;;;5052075;28;20459;-74
2022/04/21 13:39:23;;;;;;;14.40;3.23;;;;;;;;;;5052314;28;20451;-73
2022/04/21 13:41:50;;;;;;;13.97;3.10;;;;;;;;;;5044990;28;20456;-74
2022/04/21 13:44:19;;;;;;;14.07;2.77;;;;;;;;;;5051737;28;20878;-73
2022/04/21 13:46:47;;;;;;;12.90;3.10;;;;;;;;;;5051985;28;20452;-74
2022/04/21 13:49:14;;;;;;;14.70;3.20;;;;;;;;;;5051760;28;21009;-74
2022/04/21 13:51:42;;;;;;;14.60;2.83;;;;;;;;;;5051484;28;20852;-73
2022/04/21 13:54:10;;;;;;;14.37;2.70;;;;;;;;;;5051550;28;20488;-74
2022/04/21 13:56:37;;;;;;;12.97;2.93;;;;;;;;;;5051595;28;20538;-74
2022/04/21 13:59:05;;;;;;;14.50;2.73;;;;;;;;;;5051542;28;20467;-73
2022/04/21 14:01:34;;;;;;;14.67;3.77;;;;;;;;;;5050964;28;20458;-74
2022/04/21 14:04:02;;;;;;;13.33;2.53;;;;;;;;;;5051564;28;20452;-73
2022/04/21 14:06:30;;;;;;;14.13;3.13;;;;;;;;;;5051496;28;20495;-73
2022/04/21 14:08:59;;;;;;;13.40;2.43;;;;;;;;;;5051307;28;20448;-73
2022/04/21 14:11:26;;;;;;;14.50;2.70;;;;;;;;;;5051328;28;20490;-74
2022/04/21 14:13:54;;;;;;;13.20;2.40;;;;;;;;;;5051133;28;21011;-73
2022/04/21 14:16:21;;;;;;;12.70;2.70;;;;;;;;;;5051370;28;20448;-74
2022/04/21 14:18:51;;;;;;;13.60;2.60;;;;;;;;;;5051228;28;20890;-73
2022/04/21 14:21:20;;;;;;;13.20;2.60;;;;;;;;;;5051090;28;20447;-73
2022/04/21 14:23:47;;;;;;;13.40;2.73;;;;;;;;;;5051364;28;20893;-73
2022/04/21 14:26:15;;;;;;;16.03;3.10;;;;;;;;;;5051226;28;20551;-73
2022/04/21 14:28:43;;;;;;;13.90;2.77;;;;;;;;;;5050886;28;20475;-73
2022/04/21 14:31:11;;;;;;;13.03;2.30;;;;;;;;;;5050928;28;20444;-73
2022/04/21 14:33:39;;;;;;;14.50;3.27;;;;;;;;;;5050744;28;20483;-73
2022/04/21 14:36:09;;;;;;;13.50;2.70;;;;;;;;;;5050839;28;20432;-74
2022/04/21 14:44:08;;;;;;;15.20;2.73;;;;;;;;;;5051045;28;20467;-73
2022/04/21 14:46:37;;;;;;;14.70;3.03;;;;;;;;;;5050669;28;20463;-74
2022/04/21 14:49:05;;;;;;;15.53;3.80;;;;;;;;;;5050666;28;20505;-73
2022/04/21 14:51:34;;;;;;;14.20;2.70;;;;;;;;;;5050445;28;20533;-74
2022/04/21 14:54:05;;;;;;;14.50;2.80;;;;;;;;;;5050698;28;20515;-73
2022/04/21 14:56:33;;;;;;;13.70;2.17;;;;;;;;;;5050578;28;20447;-73
2022/04/21 14:59:01;;;;;;;13.30;2.73;;;;;;;;;;5050509;28;20951;-73
2022/04/21 15:01:28;;;;;;;15.00;3.10;;;;;;;;;;5050175;28;20447;-73
2022/04/21 15:03:56;;;;;;;14.17;2.53;;;;;;;;;;5050676;28;20451;-73
2022/04/21 15:06:23;;;;;;;13.60;2.33;;;;;;;;;;5050549;28;20462;-73
2022/04/21 15:08:52;;;;;;;18.77;3.10;;;;;;;;;;5050537;28;20912;-73
2022/04/21 15:11:20;;;;;;;13.17;2.47;;;;;;;;;;5050433;28;20455;-73
2022/04/21 15:13:48;;;;;;;14.73;3.53;;;;;;;;;;5050397;28;21020;-74
2022/04/21 15:16:16;;;;;;;14.03;3.13;;;;;;;;;;5050701;28;20444;-73
2022/04/21 15:18:44;;;;;;;13.17;3.10;;;;;;;;;;5050444;28;20446;-73
2022/04/21 15:21:11;;;;;;;15.40;3.70;;;;;;;;;;5050378;28;20443;-74
2022/04/21 15:23:39;;;;;;;18.00;3.13;;;;;;;;;;5050592;28;20451;-73
2022/04/21 15:26:08;;;;;;;14.30;2.50;;;;;;;;;;5051189;28;20448;-74
2022/04/21 15:28:37;;;;;;;12.63;2.13;;;;;;;;;;5051271;28;20476;-74
2022/04/21 15:31:05;;;;;;;18.20;5.50;;;;;;;;;;5044730;28;20488;-73
2022/04/21 15:33:33;;;;;;;17.80;5.50;;;;;;;;;;5051039;28;20873;-73
2022/04/21 15:36:00;;;;;;;14.87;3.10;;;;;;;;;;5051287;28;20451;-73
2022/04/21 15:38:28;;;;;;;13.97;2.30;;;;;;;;;;5051104;28;20458;-73
2022/04/21 15:40:56;;;;;;;13.30;2.27;;;;;;;;;;5051477;28;20489;-73
2022/04/21 15:43:25;;;;;;;13.40;2.40;;;;;;;;;;5050857;28;20463;-73
2022/04/21 15:45:53;;;;;;;14.57;3.50;;;;;;;;;;5051218;28;20444;-73